sensor_id;sensor_type;location;lat;lon;timestamp;P1;durP1;ratioP1;P2;durP2;ratioP2
73515;SDS011;61763;51.416;5.442;2023-03-20T00:01:37;11.13;;;4.15;;
73515;SDS011;61763;51.416;5.442;2023-03-20T00:04:02;13.07;;;5.20;;
73515;SDS011;61763;51.416;5.442;2023-03-20T00:06:29;11.50;;;4.18;;
73515;SDS011;61763;51.416;5.442;2023-03-20T00:08:56;14.38;;;5.45;;
73515;SDS011;61763;51.416;5.442;2023-03-20T00:11:32;14.40;;;5.68;;
73515;SDS011;61763;51.416;5.442;2023-03-20T00:14:09;14.00;;;6.13;;
73515;SDS011;61763;51.416;5.442;2023-03-20T00:16:38;15.27;;;6.63;;
73515;SDS011;61763;51.416;5.442;2023-03-20T00:19:05;14.45;;;5.78;;
73515;SDS011;61763;51.416;5.442;2023-03-20T00:21:31;14.82;;;5.40;;
73515;SDS011;61763;51.416;5.442;2023-03-20T00:23:57;13.15;;;4.43;;
73515;SDS011;61763;51.416;5.442;2023-03-20T00:26:26;13.32;;;4.85;;
73515;SDS011;61763;51.416;5.442;2023-03-20T00:28:55;14.80;;;5.15;;
73515;SDS011;61763;51.416;5.442;2023-03-20T00:31:25;17.15;;;4.68;;
73515;SDS011;61763;51.416;5.442;2023-03-20T00:33:52;14.23;;;4.07;;
73515;SDS011;61763;51.416;5.442;2023-03-20T00:36:21;12.07;;;4.03;;
73515;SDS011;61763;51.416;5.442;2023-03-20T00:38:47;16.13;;;5.45;;
73515;SDS011;61763;51.416;5.442;2023-03-20T00:41:20;16.10;;;6.28;;
73515;SDS011;61763;51.416;5.442;2023-03-20T00:46:48;13.48;;;5.70;;
73515;SDS011;61763;51.416;5.442;2023-03-20T00:49:23;15.10;;;5.72;;
73515;SDS011;61763;51.416;5.442;2023-03-20T00:51:52;17.00;;;5.68;;
73515;SDS011;61763;51.416;5.442;2023-03-20T00:54:18;16.63;;;5.90;;
73515;SDS011;61763;51.416;5.442;2023-03-20T00:56:44;16.08;;;6.13;;
73515;SDS011;61763;51.416;5.442;2023-03-20T00:59:20;18.75;;;6.28;;
73515;SDS011;61763;51.416;5.442;2023-03-20T01:01:48;17.95;;;6.82;;
73515;SDS011;61763;51.416;5.442;2023-03-20T01:04:15;17.65;;;6.18;;
73515;SDS011;61763;51.416;5.442;2023-03-20T01:06:43;16.02;;;5.88;;
73515;SDS011;61763;51.416;5.442;2023-03-20T01:09:10;13.63;;;5.78;;
73515;SDS011;61763;51.416;5.442;2023-03-20T01:11:36;16.60;;;5.88;;
73515;SDS011;61763;51.416;5.442;2023-03-20T01:14:03;21.27;;;6.88;;
73515;SDS011;61763;51.416;5.442;2023-03-20T01:16:30;18.42;;;5.40;;
73515;SDS011;61763;51.416;5.442;2023-03-20T01:18:56;16.83;;;5.18;;
73515;SDS011;61763;51.416;5.442;2023-03-20T01:21:21;16.90;;;6.22;;
73515;SDS011;61763;51.416;5.442;2023-03-20T01:23:47;17.42;;;6.93;;
73515;SDS011;61763;51.416;5.442;2023-03-20T01:26:34;17.98;;;5.72;;
73515;SDS011;61763;51.416;5.442;2023-03-20T01:29:00;20.92;;;5.88;;
73515;SDS011;61763;51.416;5.442;2023-03-20T01:31:26;19.45;;;6.72;;
73515;SDS011;61763;51.416;5.442;2023-03-20T01:33:52;20.55;;;7.78;;
73515;SDS011;61763;51.416;5.442;2023-03-20T01:36:19;20.33;;;7.32;;
73515;SDS011;61763;51.416;5.442;2023-03-20T01:38:48;22.52;;;6.18;;
73515;SDS011;61763;51.416;5.442;2023-03-20T01:41:19;21.75;;;7.38;;
73515;SDS011;61763;51.416;5.442;2023-03-20T01:43:47;18.73;;;6.60;;
73515;SDS011;61763;51.416;5.442;2023-03-20T01:46:14;24.02;;;8.20;;
73515;SDS011;61763;51.416;5.442;2023-03-20T01:51:16;22.35;;;7.03;;
73515;SDS011;61763;51.416;5.442;2023-03-20T01:53:46;22.67;;;5.55;;
73515;SDS011;61763;51.416;5.442;2023-03-20T01:56:24;27.13;;;7.22;;
73515;SDS011;61763;51.416;5.442;2023-03-20T01:59:03;17.52;;;5.97;;
73515;SDS011;61763;51.416;5.442;2023-03-20T02:01:33;23.23;;;8.75;;
73515;SDS011;61763;51.416;5.442;2023-03-20T02:04:01;21.30;;;6.25;;
73515;SDS011;61763;51.416;5.442;2023-03-20T02:06:28;27.23;;;8.82;;
73515;SDS011;61763;51.416;5.442;2023-03-20T02:08:53;20.25;;;6.30;;
73515;SDS011;61763;51.416;5.442;2023-03-20T02:11:20;22.55;;;7.50;;
73515;SDS011;61763;51.416;5.442;2023-03-20T02:13:48;22.52;;;7.88;;
73515;SDS011;61763;51.416;5.442;2023-03-20T02:16:16;23.25;;;6.30;;
73515;SDS011;61763;51.416;5.442;2023-03-20T02:18:45;20.95;;;7.55;;
73515;SDS011;61763;51.416;5.442;2023-03-20T02:29:43;22.63;;;7.68;;
73515;SDS011;61763;51.416;5.442;2023-03-20T02:47:20;21.02;;;7.63;;
73515;SDS011;61763;51.416;5.442;2023-03-20T02:49:55;21.95;;;7.72;;
73515;SDS011;61763;51.416;5.442;2023-03-20T03:03:39;21.20;;;7.20;;
73515;SDS011;61763;51.416;5.442;2023-03-20T03:06:23;24.52;;;8.05;;
73515;SDS011;61763;51.416;5.442;2023-03-20T03:08:55;23.15;;;9.55;;
73515;SDS011;61763;51.416;5.442;2023-03-20T03:11:26;26.67;;;8.88;;
73515;SDS011;61763;51.416;5.442;2023-03-20T03:13:52;24.27;;;6.95;;
73515;SDS011;61763;51.416;5.442;2023-03-20T03:16:25;23.50;;;8.48;;
73515;SDS011;61763;51.416;5.442;2023-03-20T03:19:04;23.13;;;7.28;;
73515;SDS011;61763;51.416;5.442;2023-03-20T03:21:36;23.38;;;7.90;;
73515;SDS011;61763;51.416;5.442;2023-03-20T03:24:04;21.75;;;7.50;;
73515;SDS011;61763;51.416;5.442;2023-03-20T03:26:32;21.48;;;7.20;;
73515;SDS011;61763;51.416;5.442;2023-03-20T03:29:03;18.23;;;6.65;;
73515;SDS011;61763;51.416;5.442;2023-03-20T03:31:36;19.55;;;5.75;;
73515;SDS011;61763;51.416;5.442;2023-03-20T03:34:02;22.75;;;7.05;;
73515;SDS011;61763;51.416;5.442;2023-03-20T03:37:30;21.67;;;6.65;;
73515;SDS011;61763;51.416;5.442;2023-03-20T03:47:05;20.98;;;6.90;;
73515;SDS011;61763;51.416;5.442;2023-03-20T03:49:43;21.10;;;6.35;;
73515;SDS011;61763;51.416;5.442;2023-03-20T03:52:16;16.13;;;6.25;;
73515;SDS011;61763;51.416;5.442;2023-03-20T03:54:58;21.60;;;6.20;;
73515;SDS011;61763;51.416;5.442;2023-03-20T03:57:30;27.70;;;8.68;;
73515;SDS011;61763;51.416;5.442;2023-03-20T03:59:59;24.67;;;8.18;;
73515;SDS011;61763;51.416;5.442;2023-03-20T04:02:27;20.48;;;7.10;;
73515;SDS011;61763;51.416;5.442;2023-03-20T04:04:53;21.75;;;7.25;;
73515;SDS011;61763;51.416;5.442;2023-03-20T04:07:19;20.15;;;6.57;;
73515;SDS011;61763;51.416;5.442;2023-03-20T04:09:45;21.67;;;7.30;;
73515;SDS011;61763;51.416;5.442;2023-03-20T04:15:10;17.48;;;5.65;;
73515;SDS011;61763;51.416;5.442;2023-03-20T04:17:40;16.30;;;7.45;;
73515;SDS011;61763;51.416;5.442;2023-03-20T04:20:06;18.00;;;5.70;;
73515;SDS011;61763;51.416;5.442;2023-03-20T04:22:33;20.58;;;5.65;;
73515;SDS011;61763;51.416;5.442;2023-03-20T04:25:00;13.85;;;6.75;;
73515;SDS011;61763;51.416;5.442;2023-03-20T04:27:28;24.25;;;7.53;;
73515;SDS011;61763;51.416;5.442;2023-03-20T04:29:53;19.77;;;6.10;;
73515;SDS011;61763;51.416;5.442;2023-03-20T04:32:19;15.68;;;6.93;;
73515;SDS011;61763;51.416;5.442;2023-03-20T04:34:45;21.60;;;5.88;;
73515;SDS011;61763;51.416;5.442;2023-03-20T04:37:10;18.38;;;6.40;;
73515;SDS011;61763;51.416;5.442;2023-03-20T04:39:36;18.17;;;7.28;;
73515;SDS011;61763;51.416;5.442;2023-03-20T04:42:02;16.27;;;7.32;;
73515;SDS011;61763;51.416;5.442;2023-03-20T04:44:28;16.45;;;4.75;;
73515;SDS011;61763;51.416;5.442;2023-03-20T04:46:54;17.70;;;7.93;;
73515;SDS011;61763;51.416;5.442;2023-03-20T04:49:19;16.27;;;5.35;;
73515;SDS011;61763;51.416;5.442;2023-03-20T04:51:45;15.07;;;6.72;;
73515;SDS011;61763;51.416;5.442;2023-03-20T04:54:10;18.40;;;6.03;;
73515;SDS011;61763;51.416;5.442;2023-03-20T04:56:35;21.15;;;9.18;;
73515;SDS011;61763;51.416;5.442;2023-03-20T04:59:01;13.30;;;5.72;;
73515;SDS011;61763;51.416;5.442;2023-03-20T05:01:26;18.95;;;5.80;;
73515;SDS011;61763;51.416;5.442;2023-03-20T05:03:53;19.52;;;7.22;;
73515;SDS011;61763;51.416;5.442;2023-03-20T05:06:24;19.60;;;7.57;;
73515;SDS011;61763;51.416;5.442;2023-03-20T05:08:53;15.90;;;7.15;;
73515;SDS011;61763;51.416;5.442;2023-03-20T05:11:20;15.93;;;5.88;;
73515;SDS011;61763;51.416;5.442;2023-03-20T05:13:45;17.38;;;7.13;;
73515;SDS011;61763;51.416;5.442;2023-03-20T05:16:11;16.38;;;7.03;;
73515;SDS011;61763;51.416;5.442;2023-03-20T05:18:36;11.90;;;4.80;;
73515;SDS011;61763;51.416;5.442;2023-03-20T05:21:02;14.27;;;6.47;;
73515;SDS011;61763;51.416;5.442;2023-03-20T05:23:28;15.15;;;5.15;;
73515;SDS011;61763;51.416;5.442;2023-03-20T05:25:53;22.45;;;6.22;;
73515;SDS011;61763;51.416;5.442;2023-03-20T05:28:19;17.25;;;6.35;;
73515;SDS011;61763;51.416;5.442;2023-03-20T05:30:45;16.92;;;6.50;;
73515;SDS011;61763;51.416;5.442;2023-03-20T05:33:10;23.30;;;5.60;;
73515;SDS011;61763;51.416;5.442;2023-03-20T05:35:36;16.20;;;6.15;;
73515;SDS011;61763;51.416;5.442;2023-03-20T05:38:01;18.42;;;5.68;;
73515;SDS011;61763;51.416;5.442;2023-03-20T05:40:26;16.83;;;5.40;;
73515;SDS011;61763;51.416;5.442;2023-03-20T05:42:53;15.25;;;6.45;;
73515;SDS011;61763;51.416;5.442;2023-03-20T05:45:18;14.43;;;6.28;;
73515;SDS011;61763;51.416;5.442;2023-03-20T05:47:44;14.25;;;5.45;;
73515;SDS011;61763;51.416;5.442;2023-03-20T05:50:11;19.20;;;6.68;;
73515;SDS011;61763;51.416;5.442;2023-03-20T05:52:37;13.50;;;6.13;;
73515;SDS011;61763;51.416;5.442;2023-03-20T05:55:02;16.20;;;5.45;;
73515;SDS011;61763;51.416;5.442;2023-03-20T05:57:28;13.80;;;5.85;;
73515;SDS011;61763;51.416;5.442;2023-03-20T05:59:54;15.93;;;4.80;;
73515;SDS011;61763;51.416;5.442;2023-03-20T06:02:21;11.57;;;5.75;;
73515;SDS011;61763;51.416;5.442;2023-03-20T06:04:46;15.80;;;5.13;;
73515;SDS011;61763;51.416;5.442;2023-03-20T06:07:13;14.32;;;5.57;;
73515;SDS011;61763;51.416;5.442;2023-03-20T06:09:39;13.57;;;5.50;;
73515;SDS011;61763;51.416;5.442;2023-03-20T06:12:05;14.30;;;5.10;;
73515;SDS011;61763;51.416;5.442;2023-03-20T06:14:30;12.48;;;4.55;;
73515;SDS011;61763;51.416;5.442;2023-03-20T06:16:56;15.65;;;6.07;;
73515;SDS011;61763;51.416;5.442;2023-03-20T06:19:22;16.73;;;6.55;;
73515;SDS011;61763;51.416;5.442;2023-03-20T06:21:48;15.82;;;4.75;;
73515;SDS011;61763;51.416;5.442;2023-03-20T06:24:14;15.10;;;5.20;;
73515;SDS011;61763;51.416;5.442;2023-03-20T06:26:40;18.35;;;5.10;;
73515;SDS011;61763;51.416;5.442;2023-03-20T06:29:05;13.15;;;5.45;;
73515;SDS011;61763;51.416;5.442;2023-03-20T06:31:31;17.85;;;5.57;;
73515;SDS011;61763;51.416;5.442;2023-03-20T06:33:56;14.85;;;5.65;;
73515;SDS011;61763;51.416;5.442;2023-03-20T06:36:22;12.30;;;4.97;;
73515;SDS011;61763;51.416;5.442;2023-03-20T06:38:47;15.07;;;4.03;;
73515;SDS011;61763;51.416;5.442;2023-03-20T06:41:13;16.80;;;5.20;;
73515;SDS011;61763;51.416;5.442;2023-03-20T06:43:38;12.10;;;4.00;;
73515;SDS011;61763;51.416;5.442;2023-03-20T06:46:05;19.70;;;4.18;;
73515;SDS011;61763;51.416;5.442;2023-03-20T06:48:31;15.82;;;4.28;;
73515;SDS011;61763;51.416;5.442;2023-03-20T06:51:00;13.73;;;5.05;;
73515;SDS011;61763;51.416;5.442;2023-03-20T06:53:25;17.40;;;6.03;;
73515;SDS011;61763;51.416;5.442;2023-03-20T06:55:51;11.60;;;4.80;;
73515;SDS011;61763;51.416;5.442;2023-03-20T06:58:17;14.75;;;3.67;;
73515;SDS011;61763;51.416;5.442;2023-03-20T07:00:42;13.07;;;5.55;;
73515;SDS011;61763;51.416;5.442;2023-03-20T07:03:08;11.63;;;4.63;;
73515;SDS011;61763;51.416;5.442;2023-03-20T07:05:34;16.58;;;4.75;;
73515;SDS011;61763;51.416;5.442;2023-03-20T07:08:00;12.45;;;3.85;;
73515;SDS011;61763;51.416;5.442;2023-03-20T07:10:25;12.00;;;4.30;;
73515;SDS011;61763;51.416;5.442;2023-03-20T07:12:51;10.75;;;3.80;;
73515;SDS011;61763;51.416;5.442;2023-03-20T07:15:17;10.70;;;4.05;;
73515;SDS011;61763;51.416;5.442;2023-03-20T07:17:43;17.15;;;4.60;;
73515;SDS011;61763;51.416;5.442;2023-03-20T07:20:08;14.90;;;4.63;;
73515;SDS011;61763;51.416;5.442;2023-03-20T07:22:35;12.02;;;3.75;;
73515;SDS011;61763;51.416;5.442;2023-03-20T07:25:01;12.05;;;2.88;;
73515;SDS011;61763;51.416;5.442;2023-03-20T07:27:27;14.05;;;4.85;;
73515;SDS011;61763;51.416;5.442;2023-03-20T07:29:52;13.25;;;4.20;;
73515;SDS011;61763;51.416;5.442;2023-03-20T07:32:17;12.05;;;4.75;;
73515;SDS011;61763;51.416;5.442;2023-03-20T07:34:43;14.73;;;4.22;;
73515;SDS011;61763;51.416;5.442;2023-03-20T07:37:09;11.98;;;4.53;;
73515;SDS011;61763;51.416;5.442;2023-03-20T07:39:35;16.05;;;4.53;;
73515;SDS011;61763;51.416;5.442;2023-03-20T07:42:00;11.13;;;3.53;;
73515;SDS011;61763;51.416;5.442;2023-03-20T07:44:26;9.73;;;3.80;;
73515;SDS011;61763;51.416;5.442;2023-03-20T07:46:51;7.85;;;2.85;;
73515;SDS011;61763;51.416;5.442;2023-03-20T07:49:17;12.48;;;4.10;;
73515;SDS011;61763;51.416;5.442;2023-03-20T07:51:43;14.57;;;3.67;;
73515;SDS011;61763;51.416;5.442;2023-03-20T07:54:10;11.55;;;3.63;;
73515;SDS011;61763;51.416;5.442;2023-03-20T07:56:35;12.25;;;4.55;;
73515;SDS011;61763;51.416;5.442;2023-03-20T07:59:01;13.95;;;4.97;;
73515;SDS011;61763;51.416;5.442;2023-03-20T08:01:26;14.90;;;4.53;;
73515;SDS011;61763;51.416;5.442;2023-03-20T08:03:52;16.33;;;4.45;;
73515;SDS011;61763;51.416;5.442;2023-03-20T08:06:17;11.02;;;4.10;;
73515;SDS011;61763;51.416;5.442;2023-03-20T08:08:43;11.90;;;4.20;;
73515;SDS011;61763;51.416;5.442;2023-03-20T08:11:09;13.35;;;4.53;;
73515;SDS011;61763;51.416;5.442;2023-03-20T08:13:35;12.35;;;2.58;;
73515;SDS011;61763;51.416;5.442;2023-03-20T08:16:01;10.18;;;2.92;;
73515;SDS011;61763;51.416;5.442;2023-03-20T08:18:26;12.70;;;3.83;;
73515;SDS011;61763;51.416;5.442;2023-03-20T08:20:52;11.38;;;4.30;;
73515;SDS011;61763;51.416;5.442;2023-03-20T08:23:17;10.60;;;2.88;;
73515;SDS011;61763;51.416;5.442;2023-03-20T08:25:49;11.25;;;3.58;;
73515;SDS011;61763;51.416;5.442;2023-03-20T08:28:16;11.63;;;2.35;;
73515;SDS011;61763;51.416;5.442;2023-03-20T08:30:42;9.25;;;3.63;;
73515;SDS011;61763;51.416;5.442;2023-03-20T08:33:07;10.23;;;3.65;;
73515;SDS011;61763;51.416;5.442;2023-03-20T08:35:33;9.05;;;3.28;;
73515;SDS011;61763;51.416;5.442;2023-03-20T08:37:59;10.93;;;2.60;;
73515;SDS011;61763;51.416;5.442;2023-03-20T08:40:25;10.68;;;3.95;;
73515;SDS011;61763;51.416;5.442;2023-03-20T08:42:50;10.60;;;3.33;;
73515;SDS011;61763;51.416;5.442;2023-03-20T08:45:15;14.15;;;2.72;;
73515;SDS011;61763;51.416;5.442;2023-03-20T08:47:41;13.70;;;3.75;;
73515;SDS011;61763;51.416;5.442;2023-03-20T08:50:08;6.20;;;3.50;;
73515;SDS011;61763;51.416;5.442;2023-03-20T08:52:34;8.10;;;1.92;;
73515;SDS011;61763;51.416;5.442;2023-03-20T08:55:00;11.73;;;3.78;;
73515;SDS011;61763;51.416;5.442;2023-03-20T08:57:26;9.77;;;2.15;;
73515;SDS011;61763;51.416;5.442;2023-03-20T08:59:51;16.35;;;4.10;;
73515;SDS011;61763;51.416;5.442;2023-03-20T09:02:17;10.20;;;3.65;;
73515;SDS011;61763;51.416;5.442;2023-03-20T09:04:42;8.70;;;1.83;;
73515;SDS011;61763;51.416;5.442;2023-03-20T09:07:07;7.68;;;3.50;;
73515;SDS011;61763;51.416;5.442;2023-03-20T09:09:33;10.35;;;1.98;;
73515;SDS011;61763;51.416;5.442;2023-03-20T09:11:59;9.80;;;2.35;;
73515;SDS011;61763;51.416;5.442;2023-03-20T09:14:25;11.07;;;3.03;;
73515;SDS011;61763;51.416;5.442;2023-03-20T09:16:52;6.88;;;2.08;;
73515;SDS011;61763;51.416;5.442;2023-03-20T09:19:17;6.60;;;2.00;;
73515;SDS011;61763;51.416;5.442;2023-03-20T09:21:44;8.60;;;2.25;;
73515;SDS011;61763;51.416;5.442;2023-03-20T09:24:10;13.70;;;3.10;;
73515;SDS011;61763;51.416;5.442;2023-03-20T09:26:36;5.88;;;2.35;;
73515;SDS011;61763;51.416;5.442;2023-03-20T09:29:02;10.00;;;4.07;;
73515;SDS011;61763;51.416;5.442;2023-03-20T09:31:28;9.32;;;2.95;;
73515;SDS011;61763;51.416;5.442;2023-03-20T09:33:53;12.77;;;3.25;;
73515;SDS011;61763;51.416;5.442;2023-03-20T09:36:18;10.63;;;3.75;;
73515;SDS011;61763;51.416;5.442;2023-03-20T09:38:44;12.95;;;3.72;;
73515;SDS011;61763;51.416;5.442;2023-03-20T09:41:16;13.32;;;3.40;;
73515;SDS011;61763;51.416;5.442;2023-03-20T09:52:02;9.52;;;2.80;;
73515;SDS011;61763;51.416;5.442;2023-03-20T09:54:39;9.25;;;3.35;;
73515;SDS011;61763;51.416;5.442;2023-03-20T09:57:14;8.82;;;3.72;;
73515;SDS011;61763;51.416;5.442;2023-03-20T09:59:56;6.28;;;2.40;;
73515;SDS011;61763;51.416;5.442;2023-03-20T10:05:18;7.00;;;2.65;;
73515;SDS011;61763;51.416;5.442;2023-03-20T10:07:48;6.28;;;2.10;;
73515;SDS011;61763;51.416;5.442;2023-03-20T10:10:14;8.90;;;3.90;;
73515;SDS011;61763;51.416;5.442;2023-03-20T10:12:48;9.98;;;2.55;;
73515;SDS011;61763;51.416;5.442;2023-03-20T10:15:18;9.90;;;3.45;;
73515;SDS011;61763;51.416;5.442;2023-03-20T10:18:09;8.65;;;2.67;;
73515;SDS011;61763;51.416;5.442;2023-03-20T10:25:55;8.90;;;3.13;;
73515;SDS011;61763;51.416;5.442;2023-03-20T10:28:32;14.30;;;2.15;;
73515;SDS011;61763;51.416;5.442;2023-03-20T10:41:28;9.98;;;2.05;;
73515;SDS011;61763;51.416;5.442;2023-03-20T10:43:59;6.78;;;3.45;;
73515;SDS011;61763;51.416;5.442;2023-03-20T10:46:27;9.13;;;3.22;;
73515;SDS011;61763;51.416;5.442;2023-03-20T10:52:01;9.30;;;2.13;;
73515;SDS011;61763;51.416;5.442;2023-03-20T10:54:35;8.95;;;2.50;;
73515;SDS011;61763;51.416;5.442;2023-03-20T10:57:05;11.68;;;3.75;;
73515;SDS011;61763;51.416;5.442;2023-03-20T10:59:39;7.60;;;2.85;;
73515;SDS011;61763;51.416;5.442;2023-03-20T11:02:14;8.07;;;3.42;;
73515;SDS011;61763;51.416;5.442;2023-03-20T11:04:41;10.75;;;3.95;;
73515;SDS011;61763;51.416;5.442;2023-03-20T11:07:11;4.95;;;2.13;;
73515;SDS011;61763;51.416;5.442;2023-03-20T11:09:37;9.45;;;3.60;;
73515;SDS011;61763;51.416;5.442;2023-03-20T11:12:03;8.23;;;3.30;;
73515;SDS011;61763;51.416;5.442;2023-03-20T11:14:35;6.20;;;2.10;;
73515;SDS011;61763;51.416;5.442;2023-03-20T11:17:03;10.80;;;3.03;;
73515;SDS011;61763;51.416;5.442;2023-03-20T11:19:33;10.50;;;3.88;;
73515;SDS011;61763;51.416;5.442;2023-03-20T11:22:05;11.07;;;3.00;;
73515;SDS011;61763;51.416;5.442;2023-03-20T11:24:35;9.52;;;3.63;;
73515;SDS011;61763;51.416;5.442;2023-03-20T11:27:04;7.63;;;3.47;;
73515;SDS011;61763;51.416;5.442;2023-03-20T11:29:32;10.65;;;2.30;;
73515;SDS011;61763;51.416;5.442;2023-03-20T11:32:03;7.80;;;1.85;;
73515;SDS011;61763;51.416;5.442;2023-03-20T11:34:32;6.03;;;2.88;;
73515;SDS011;61763;51.416;5.442;2023-03-20T11:37:05;10.10;;;2.88;;
73515;SDS011;61763;51.416;5.442;2023-03-20T11:39:31;8.73;;;2.47;;
73515;SDS011;61763;51.416;5.442;2023-03-20T11:41:59;7.97;;;2.67;;
73515;SDS011;61763;51.416;5.442;2023-03-20T11:44:27;9.60;;;1.98;;
73515;SDS011;61763;51.416;5.442;2023-03-20T11:46:56;10.23;;;3.55;;
73515;SDS011;61763;51.416;5.442;2023-03-20T11:49:29;11.45;;;3.30;;
73515;SDS011;61763;51.416;5.442;2023-03-20T11:52:00;10.88;;;3.13;;
73515;SDS011;61763;51.416;5.442;2023-03-20T11:54:35;10.20;;;3.75;;
73515;SDS011;61763;51.416;5.442;2023-03-20T11:57:01;10.18;;;3.03;;
73515;SDS011;61763;51.416;5.442;2023-03-20T11:59:31;14.27;;;4.00;;
73515;SDS011;61763;51.416;5.442;2023-03-20T12:01:59;8.25;;;2.95;;
73515;SDS011;61763;51.416;5.442;2023-03-20T12:04:29;7.70;;;3.42;;
73515;SDS011;61763;51.416;5.442;2023-03-20T12:09:47;8.75;;;2.22;;
73515;SDS011;61763;51.416;5.442;2023-03-20T12:17:45;9.05;;;3.38;;
73515;SDS011;61763;51.416;5.442;2023-03-20T12:20:18;14.73;;;3.55;;
73515;SDS011;61763;51.416;5.442;2023-03-20T12:23:11;9.90;;;4.22;;
73515;SDS011;61763;51.416;5.442;2023-03-20T12:25:54;10.07;;;3.88;;
73515;SDS011;61763;51.416;5.442;2023-03-20T12:31:25;12.65;;;3.92;;
73515;SDS011;61763;51.416;5.442;2023-03-20T12:36:42;12.07;;;3.55;;
73515;SDS011;61763;51.416;5.442;2023-03-20T12:39:11;13.10;;;4.03;;
73515;SDS011;61763;51.416;5.442;2023-03-20T12:44:38;11.50;;;3.78;;
73515;SDS011;61763;51.416;5.442;2023-03-20T12:55:30;9.63;;;4.00;;
73515;SDS011;61763;51.416;5.442;2023-03-20T13:11:54;12.52;;;3.75;;
73515;SDS011;61763;51.416;5.442;2023-03-20T13:17:22;6.57;;;2.88;;
73515;SDS011;61763;51.416;5.442;2023-03-20T13:23:11;9.40;;;3.72;;
73515;SDS011;61763;51.416;5.442;2023-03-20T13:31:56;7.25;;;3.10;;
73515;SDS011;61763;51.416;5.442;2023-03-20T13:37:32;12.52;;;3.03;;
73515;SDS011;61763;51.416;5.442;2023-03-20T13:42:44;10.65;;;2.03;;
73515;SDS011;61763;51.416;5.442;2023-03-20T13:53:34;11.75;;;3.25;;
73515;SDS011;61763;51.416;5.442;2023-03-20T14:04:32;11.10;;;3.22;;
73515;SDS011;61763;51.416;5.442;2023-03-20T14:06:58;9.55;;;3.13;;
73515;SDS011;61763;51.416;5.442;2023-03-20T14:11:54;9.20;;;2.97;;
73515;SDS011;61763;51.416;5.442;2023-03-20T14:17:00;8.30;;;2.78;;
73515;SDS011;61763;51.416;5.442;2023-03-20T14:19:27;8.07;;;2.50;;
73515;SDS011;61763;51.416;5.442;2023-03-20T14:21:53;7.75;;;1.70;;
73515;SDS011;61763;51.416;5.442;2023-03-20T14:24:20;10.52;;;4.07;;
73515;SDS011;61763;51.416;5.442;2023-03-20T14:26:48;6.38;;;2.47;;
73515;SDS011;61763;51.416;5.442;2023-03-20T14:31:42;6.90;;;2.20;;
73515;SDS011;61763;51.416;5.442;2023-03-20T14:36:55;7.05;;;2.90;;
73515;SDS011;61763;51.416;5.442;2023-03-20T14:48:02;9.73;;;2.80;;
73515;SDS011;61763;51.416;5.442;2023-03-20T14:50:37;6.93;;;1.38;;
73515;SDS011;61763;51.416;5.442;2023-03-20T14:53:26;8.93;;;1.65;;
73515;SDS011;61763;51.416;5.442;2023-03-20T15:01:08;9.38;;;2.35;;
73515;SDS011;61763;51.416;5.442;2023-03-20T15:03:38;6.97;;;2.72;;
73515;SDS011;61763;51.416;5.442;2023-03-20T15:06:06;14.02;;;2.45;;
73515;SDS011;61763;51.416;5.442;2023-03-20T15:08:34;7.85;;;2.80;;
73515;SDS011;61763;51.416;5.442;2023-03-20T15:11:07;13.95;;;3.78;;
73515;SDS011;61763;51.416;5.442;2023-03-20T15:13:35;8.27;;;1.73;;
73515;SDS011;61763;51.416;5.442;2023-03-20T15:16:09;6.45;;;1.50;;
73515;SDS011;61763;51.416;5.442;2023-03-20T15:18:38;6.43;;;2.75;;
73515;SDS011;61763;51.416;5.442;2023-03-20T15:21:13;5.95;;;2.60;;
73515;SDS011;61763;51.416;5.442;2023-03-20T15:23:43;5.15;;;2.33;;
73515;SDS011;61763;51.416;5.442;2023-03-20T15:26:10;9.98;;;1.98;;
73515;SDS011;61763;51.416;5.442;2023-03-20T15:28:39;5.85;;;2.40;;
73515;SDS011;61763;51.416;5.442;2023-03-20T15:31:12;6.60;;;1.65;;
73515;SDS011;61763;51.416;5.442;2023-03-20T15:33:45;6.38;;;2.78;;
73515;SDS011;61763;51.416;5.442;2023-03-20T15:36:15;10.27;;;3.53;;
73515;SDS011;61763;51.416;5.442;2023-03-20T15:38:43;12.25;;;2.92;;
73515;SDS011;61763;51.416;5.442;2023-03-20T15:49:31;7.20;;;2.42;;
73515;SDS011;61763;51.416;5.442;2023-03-20T15:52:02;7.30;;;1.23;;
73515;SDS011;61763;51.416;5.442;2023-03-20T15:54:30;4.13;;;2.05;;
73515;SDS011;61763;51.416;5.442;2023-03-20T15:56:58;7.65;;;2.22;;
73515;SDS011;61763;51.416;5.442;2023-03-20T15:59:26;6.57;;;1.50;;
73515;SDS011;61763;51.416;5.442;2023-03-20T16:01:56;8.07;;;2.25;;
73515;SDS011;61763;51.416;5.442;2023-03-20T16:04:23;5.50;;;2.55;;
73515;SDS011;61763;51.416;5.442;2023-03-20T16:06:51;9.52;;;1.67;;
73515;SDS011;61763;51.416;5.442;2023-03-20T16:09:19;9.38;;;2.67;;
73515;SDS011;61763;51.416;5.442;2023-03-20T16:11:45;9.00;;;2.53;;
73515;SDS011;61763;51.416;5.442;2023-03-20T16:14:31;7.93;;;2.88;;
73515;SDS011;61763;51.416;5.442;2023-03-20T16:17:00;5.30;;;1.42;;
73515;SDS011;61763;51.416;5.442;2023-03-20T16:19:29;9.75;;;2.55;;
73515;SDS011;61763;51.416;5.442;2023-03-20T16:21:55;6.95;;;1.52;;
73515;SDS011;61763;51.416;5.442;2023-03-20T16:24:28;8.35;;;3.42;;
73515;SDS011;61763;51.416;5.442;2023-03-20T16:26:58;9.38;;;3.10;;
73515;SDS011;61763;51.416;5.442;2023-03-20T16:29:26;9.15;;;1.75;;
73515;SDS011;61763;51.416;5.442;2023-03-20T16:31:56;11.50;;;1.65;;
73515;SDS011;61763;51.416;5.442;2023-03-20T16:34:26;8.38;;;1.90;;
73515;SDS011;61763;51.416;5.442;2023-03-20T16:37:00;6.60;;;1.52;;
73515;SDS011;61763;51.416;5.442;2023-03-20T16:39:33;8.35;;;2.97;;
73515;SDS011;61763;51.416;5.442;2023-03-20T16:42:22;7.85;;;2.80;;
73515;SDS011;61763;51.416;5.442;2023-03-20T16:44:55;10.65;;;2.00;;
73515;SDS011;61763;51.416;5.442;2023-03-20T16:52:23;10.05;;;3.53;;
73515;SDS011;61763;51.416;5.442;2023-03-20T16:54:55;7.05;;;1.63;;
73515;SDS011;61763;51.416;5.442;2023-03-20T16:57:22;10.63;;;3.65;;
73515;SDS011;61763;51.416;5.442;2023-03-20T16:59:48;9.88;;;1.88;;
73515;SDS011;61763;51.416;5.442;2023-03-20T17:02:23;6.15;;;1.60;;
73515;SDS011;61763;51.416;5.442;2023-03-20T17:04:56;9.20;;;2.20;;
73515;SDS011;61763;51.416;5.442;2023-03-20T17:07:25;7.97;;;3.50;;
73515;SDS011;61763;51.416;5.442;2023-03-20T17:12:25;9.20;;;3.70;;
73515;SDS011;61763;51.416;5.442;2023-03-20T17:17:20;6.28;;;1.90;;
73515;SDS011;61763;51.416;5.442;2023-03-20T17:19:47;11.20;;;4.35;;
73515;SDS011;61763;51.416;5.442;2023-03-20T17:22:23;9.95;;;3.20;;
73515;SDS011;61763;51.416;5.442;2023-03-20T17:24:50;12.23;;;4.40;;
73515;SDS011;61763;51.416;5.442;2023-03-20T17:27:17;11.25;;;3.97;;
73515;SDS011;61763;51.416;5.442;2023-03-20T17:29:44;10.25;;;3.70;;
73515;SDS011;61763;51.416;5.442;2023-03-20T17:32:11;9.45;;;3.40;;
73515;SDS011;61763;51.416;5.442;2023-03-20T17:34:39;13.45;;;3.05;;
73515;SDS011;61763;51.416;5.442;2023-03-20T17:37:05;10.98;;;3.28;;
73515;SDS011;61763;51.416;5.442;2023-03-20T17:39:35;12.50;;;3.70;;
73515;SDS011;61763;51.416;5.442;2023-03-20T17:42:01;9.18;;;3.42;;
73515;SDS011;61763;51.416;5.442;2023-03-20T17:44:26;9.10;;;4.57;;
73515;SDS011;61763;51.416;5.442;2023-03-20T17:46:51;11.57;;;3.53;;
73515;SDS011;61763;51.416;5.442;2023-03-20T17:49:17;7.18;;;3.92;;
73515;SDS011;61763;51.416;5.442;2023-03-20T17:51:47;12.60;;;2.92;;
73515;SDS011;61763;51.416;5.442;2023-03-20T17:54:12;14.57;;;2.70;;
73515;SDS011;61763;51.416;5.442;2023-03-20T17:56:37;12.10;;;2.92;;
73515;SDS011;61763;51.416;5.442;2023-03-20T17:59:08;12.20;;;5.10;;
73515;SDS011;61763;51.416;5.442;2023-03-20T18:01:37;12.55;;;4.65;;
73515;SDS011;61763;51.416;5.442;2023-03-20T18:04:03;10.40;;;3.45;;